sensor_id;sensor_type;location;lat;lon;timestamp;P1;durP1;ratioP1;P2;durP2;ratioP2
42332;SDS011;27984;51.476;5.702;2023-04-15T00:01:54;10.73;;;6.10;;
42332;SDS011;27984;51.476;5.702;2023-04-15T00:04:22;12.05;;;5.97;;
42332;SDS011;27984;51.476;5.702;2023-04-15T00:06:51;13.13;;;6.28;;
42332;SDS011;27984;51.476;5.702;2023-04-15T00:09:17;11.05;;;6.35;;
42332;SDS011;27984;51.476;5.702;2023-04-15T00:11:43;13.30;;;7.15;;
42332;SDS011;27984;51.476;5.702;2023-04-15T00:14:11;11.20;;;6.25;;
42332;SDS011;27984;51.476;5.702;2023-04-15T00:16:37;13.07;;;6.95;;
42332;SDS011;27984;51.476;5.702;2023-04-15T00:19:03;15.18;;;6.95;;
42332;SDS011;27984;51.476;5.702;2023-04-15T00:21:28;12.88;;;6.97;;
42332;SDS011;27984;51.476;5.702;2023-04-15T00:23:54;12.82;;;6.93;;
42332;SDS011;27984;51.476;5.702;2023-04-15T00:26:20;16.67;;;7.43;;
42332;SDS011;27984;51.476;5.702;2023-04-15T00:28:46;14.32;;;7.15;;
42332;SDS011;27984;51.476;5.702;2023-04-15T00:31:11;17.33;;;7.68;;
42332;SDS011;27984;51.476;5.702;2023-04-15T00:33:37;13.85;;;7.30;;
42332;SDS011;27984;51.476;5.702;2023-04-15T00:36:03;14.35;;;7.22;;
42332;SDS011;27984;51.476;5.702;2023-04-15T00:38:29;14.32;;;8.10;;
42332;SDS011;27984;51.476;5.702;2023-04-15T00:40:55;14.82;;;7.55;;
42332;SDS011;27984;51.476;5.702;2023-04-15T00:43:21;15.65;;;9.55;;
42332;SDS011;27984;51.476;5.702;2023-04-15T00:45:46;21.65;;;11.63;;
42332;SDS011;27984;51.476;5.702;2023-04-15T00:48:12;14.93;;;8.10;;
42332;SDS011;27984;51.476;5.702;2023-04-15T00:50:37;15.25;;;7.90;;
42332;SDS011;27984;51.476;5.702;2023-04-15T00:53:03;13.98;;;8.23;;
42332;SDS011;27984;51.476;5.702;2023-04-15T00:55:29;12.60;;;7.47;;
42332;SDS011;27984;51.476;5.702;2023-04-15T00:57:55;18.88;;;7.47;;
42332;SDS011;27984;51.476;5.702;2023-04-15T01:00:21;16.15;;;7.75;;
42332;SDS011;27984;51.476;5.702;2023-04-15T01:02:47;12.70;;;7.30;;
42332;SDS011;27984;51.476;5.702;2023-04-15T01:05:14;15.18;;;7.88;;
42332;SDS011;27984;51.476;5.702;2023-04-15T01:07:42;13.00;;;7.18;;
42332;SDS011;27984;51.476;5.702;2023-04-15T01:10:08;14.10;;;7.68;;
42332;SDS011;27984;51.476;5.702;2023-04-15T01:12:33;13.98;;;6.97;;
42332;SDS011;27984;51.476;5.702;2023-04-15T01:15:00;13.43;;;6.97;;
42332;SDS011;27984;51.476;5.702;2023-04-15T01:17:26;17.02;;;8.00;;
42332;SDS011;27984;51.476;5.702;2023-04-15T01:19:52;14.80;;;7.13;;
42332;SDS011;27984;51.476;5.702;2023-04-15T01:22:21;13.18;;;7.15;;
42332;SDS011;27984;51.476;5.702;2023-04-15T01:24:54;12.02;;;7.88;;
42332;SDS011;27984;51.476;5.702;2023-04-15T01:27:26;13.93;;;7.47;;
42332;SDS011;27984;51.476;5.702;2023-04-15T01:29:51;13.48;;;7.68;;
42332;SDS011;27984;51.476;5.702;2023-04-15T01:32:17;15.18;;;8.32;;
42332;SDS011;27984;51.476;5.702;2023-04-15T01:34:43;18.90;;;8.25;;
42332;SDS011;27984;51.476;5.702;2023-04-15T01:37:09;17.63;;;7.95;;
42332;SDS011;27984;51.476;5.702;2023-04-15T01:39:35;16.33;;;7.55;;
42332;SDS011;27984;51.476;5.702;2023-04-15T01:42:01;12.55;;;8.07;;
42332;SDS011;27984;51.476;5.702;2023-04-15T01:44:27;17.52;;;8.38;;
42332;SDS011;27984;51.476;5.702;2023-04-15T01:46:52;18.70;;;8.50;;
42332;SDS011;27984;51.476;5.702;2023-04-15T01:49:18;13.25;;;8.70;;
42332;SDS011;27984;51.476;5.702;2023-04-15T01:51:43;15.55;;;8.05;;
42332;SDS011;27984;51.476;5.702;2023-04-15T01:54:09;13.75;;;8.43;;
42332;SDS011;27984;51.476;5.702;2023-04-15T01:56:35;12.95;;;8.07;;
42332;SDS011;27984;51.476;5.702;2023-04-15T01:59:00;16.90;;;8.57;;
42332;SDS011;27984;51.476;5.702;2023-04-15T02:01:27;14.93;;;9.07;;
42332;SDS011;27984;51.476;5.702;2023-04-15T02:03:53;17.33;;;9.40;;
42332;SDS011;27984;51.476;5.702;2023-04-15T02:06:18;18.00;;;11.75;;
42332;SDS011;27984;51.476;5.702;2023-04-15T02:08:44;12.23;;;8.93;;
42332;SDS011;27984;51.476;5.702;2023-04-15T02:11:10;15.27;;;9.23;;
42332;SDS011;27984;51.476;5.702;2023-04-15T02:13:35;15.18;;;9.13;;
42332;SDS011;27984;51.476;5.702;2023-04-15T02:16:01;13.95;;;9.30;;
42332;SDS011;27984;51.476;5.702;2023-04-15T02:18:27;14.48;;;9.05;;
42332;SDS011;27984;51.476;5.702;2023-04-15T02:20:53;17.35;;;10.07;;
42332;SDS011;27984;51.476;5.702;2023-04-15T02:23:19;18.88;;;10.15;;
42332;SDS011;27984;51.476;5.702;2023-04-15T02:25:44;17.98;;;9.68;;
42332;SDS011;27984;51.476;5.702;2023-04-15T02:28:11;18.00;;;9.68;;
42332;SDS011;27984;51.476;5.702;2023-04-15T02:30:36;17.00;;;9.68;;
42332;SDS011;27984;51.476;5.702;2023-04-15T02:33:02;17.00;;;9.30;;
42332;SDS011;27984;51.476;5.702;2023-04-15T02:35:28;17.23;;;9.50;;
42332;SDS011;27984;51.476;5.702;2023-04-15T02:37:53;18.05;;;9.77;;
42332;SDS011;27984;51.476;5.702;2023-04-15T02:40:19;14.68;;;9.15;;
42332;SDS011;27984;51.476;5.702;2023-04-15T02:42:44;19.08;;;9.77;;
42332;SDS011;27984;51.476;5.702;2023-04-15T02:45:10;14.55;;;9.55;;
42332;SDS011;27984;51.476;5.702;2023-04-15T02:47:36;16.60;;;10.13;;
42332;SDS011;27984;51.476;5.702;2023-04-15T02:50:06;15.10;;;9.68;;
42332;SDS011;27984;51.476;5.702;2023-04-15T02:52:33;13.85;;;9.13;;
42332;SDS011;27984;51.476;5.702;2023-04-15T02:54:59;17.48;;;9.48;;
42332;SDS011;27984;51.476;5.702;2023-04-15T02:57:26;14.18;;;9.38;;
42332;SDS011;27984;51.476;5.702;2023-04-15T02:59:53;17.25;;;10.15;;
42332;SDS011;27984;51.476;5.702;2023-04-15T03:02:18;16.00;;;9.23;;
42332;SDS011;27984;51.476;5.702;2023-04-15T03:04:44;14.05;;;9.25;;
42332;SDS011;27984;51.476;5.702;2023-04-15T03:07:10;17.50;;;9.95;;
42332;SDS011;27984;51.476;5.702;2023-04-15T03:09:35;16.45;;;9.65;;
42332;SDS011;27984;51.476;5.702;2023-04-15T03:12:01;15.98;;;9.13;;
42332;SDS011;27984;51.476;5.702;2023-04-15T03:14:26;16.23;;;9.10;;
42332;SDS011;27984;51.476;5.702;2023-04-15T03:16:52;13.75;;;9.82;;
42332;SDS011;27984;51.476;5.702;2023-04-15T03:19:17;15.52;;;9.50;;
42332;SDS011;27984;51.476;5.702;2023-04-15T03:21:43;14.82;;;9.23;;
42332;SDS011;27984;51.476;5.702;2023-04-15T03:24:08;12.13;;;9.05;;
42332;SDS011;27984;51.476;5.702;2023-04-15T03:26:34;16.60;;;9.73;;
42332;SDS011;27984;51.476;5.702;2023-04-15T03:29:00;13.63;;;10.05;;
42332;SDS011;27984;51.476;5.702;2023-04-15T03:31:25;14.38;;;9.15;;
42332;SDS011;27984;51.476;5.702;2023-04-15T03:33:51;16.00;;;9.88;;
42332;SDS011;27984;51.476;5.702;2023-04-15T03:36:16;16.42;;;9.23;;
42332;SDS011;27984;51.476;5.702;2023-04-15T03:38:42;15.98;;;9.80;;
42332;SDS011;27984;51.476;5.702;2023-04-15T03:41:07;12.80;;;10.10;;
42332;SDS011;27984;51.476;5.702;2023-04-15T03:43:33;18.88;;;10.90;;
42332;SDS011;27984;51.476;5.702;2023-04-15T03:45:59;16.77;;;10.63;;
42332;SDS011;27984;51.476;5.702;2023-04-15T03:48:25;17.42;;;10.18;;
42332;SDS011;27984;51.476;5.702;2023-04-15T03:50:50;17.30;;;11.10;;
42332;SDS011;27984;51.476;5.702;2023-04-15T03:53:16;13.52;;;9.93;;
42332;SDS011;27984;51.476;5.702;2023-04-15T03:55:41;14.82;;;9.40;;
42332;SDS011;27984;51.476;5.702;2023-04-15T03:58:07;15.10;;;10.07;;
42332;SDS011;27984;51.476;5.702;2023-04-15T04:00:36;13.98;;;10.07;;
42332;SDS011;27984;51.476;5.702;2023-04-15T04:03:02;16.67;;;10.82;;
42332;SDS011;27984;51.476;5.702;2023-04-15T04:05:28;15.13;;;10.73;;
42332;SDS011;27984;51.476;5.702;2023-04-15T04:07:54;15.98;;;10.43;;
42332;SDS011;27984;51.476;5.702;2023-04-15T04:10:19;15.50;;;10.52;;
42332;SDS011;27984;51.476;5.702;2023-04-15T04:12:45;13.50;;;10.30;;
42332;SDS011;27984;51.476;5.702;2023-04-15T04:15:11;14.48;;;10.15;;
42332;SDS011;27984;51.476;5.702;2023-04-15T04:17:36;17.52;;;10.65;;
42332;SDS011;27984;51.476;5.702;2023-04-15T04:20:02;14.70;;;10.57;;
42332;SDS011;27984;51.476;5.702;2023-04-15T04:22:27;18.63;;;11.35;;
42332;SDS011;27984;51.476;5.702;2023-04-15T04:24:53;14.63;;;10.40;;
42332;SDS011;27984;51.476;5.702;2023-04-15T04:27:18;18.15;;;10.38;;
42332;SDS011;27984;51.476;5.702;2023-04-15T04:29:44;14.63;;;10.77;;
42332;SDS011;27984;51.476;5.702;2023-04-15T04:32:11;16.23;;;11.25;;
42332;SDS011;27984;51.476;5.702;2023-04-15T04:34:37;18.55;;;11.02;;
42332;SDS011;27984;51.476;5.702;2023-04-15T04:37:02;19.95;;;11.50;;
42332;SDS011;27984;51.476;5.702;2023-04-15T04:39:28;16.15;;;10.88;;
42332;SDS011;27984;51.476;5.702;2023-04-15T04:41:53;18.38;;;10.70;;
42332;SDS011;27984;51.476;5.702;2023-04-15T04:44:19;15.60;;;11.35;;
42332;SDS011;27984;51.476;5.702;2023-04-15T04:46:46;17.90;;;10.77;;
42332;SDS011;27984;51.476;5.702;2023-04-15T04:49:11;14.90;;;11.23;;
42332;SDS011;27984;51.476;5.702;2023-04-15T04:51:37;16.23;;;11.15;;
42332;SDS011;27984;51.476;5.702;2023-04-15T04:54:02;17.90;;;10.75;;
42332;SDS011;27984;51.476;5.702;2023-04-15T04:56:28;15.40;;;11.18;;
42332;SDS011;27984;51.476;5.702;2023-04-15T04:58:53;16.80;;;11.43;;
42332;SDS011;27984;51.476;5.702;2023-04-15T05:01:19;20.90;;;11.93;;
42332;SDS011;27984;51.476;5.702;2023-04-15T05:03:45;15.60;;;11.68;;
42332;SDS011;27984;51.476;5.702;2023-04-15T05:06:10;21.98;;;12.02;;
42332;SDS011;27984;51.476;5.702;2023-04-15T05:08:36;15.90;;;11.23;;
42332;SDS011;27984;51.476;5.702;2023-04-15T05:11:02;18.63;;;11.90;;
42332;SDS011;27984;51.476;5.702;2023-04-15T05:13:27;19.55;;;12.32;;
42332;SDS011;27984;51.476;5.702;2023-04-15T05:15:54;16.77;;;11.73;;
42332;SDS011;27984;51.476;5.702;2023-04-15T05:18:19;16.45;;;11.63;;
42332;SDS011;27984;51.476;5.702;2023-04-15T05:20:45;17.73;;;12.50;;
42332;SDS011;27984;51.476;5.702;2023-04-15T05:23:10;18.80;;;11.88;;
42332;SDS011;27984;51.476;5.702;2023-04-15T05:25:36;20.17;;;12.10;;
42332;SDS011;27984;51.476;5.702;2023-04-15T05:28:01;19.35;;;12.48;;
42332;SDS011;27984;51.476;5.702;2023-04-15T05:30:27;15.93;;;11.30;;
42332;SDS011;27984;51.476;5.702;2023-04-15T05:32:53;22.15;;;11.73;;
42332;SDS011;27984;51.476;5.702;2023-04-15T05:35:18;22.27;;;12.38;;
42332;SDS011;27984;51.476;5.702;2023-04-15T05:37:44;18.45;;;12.52;;
42332;SDS011;27984;51.476;5.702;2023-04-15T05:40:10;15.05;;;11.65;;
42332;SDS011;27984;51.476;5.702;2023-04-15T05:42:35;17.30;;;12.07;;
42332;SDS011;27984;51.476;5.702;2023-04-15T05:45:01;17.55;;;12.05;;
42332;SDS011;27984;51.476;5.702;2023-04-15T05:47:29;15.70;;;11.60;;
42332;SDS011;27984;51.476;5.702;2023-04-15T05:49:55;16.73;;;11.07;;
42332;SDS011;27984;51.476;5.702;2023-04-15T05:52:22;16.70;;;11.20;;
42332;SDS011;27984;51.476;5.702;2023-04-15T05:54:48;17.73;;;11.73;;
42332;SDS011;27984;51.476;5.702;2023-04-15T05:57:14;16.20;;;11.13;;
42332;SDS011;27984;51.476;5.702;2023-04-15T05:59:39;16.33;;;11.73;;
42332;SDS011;27984;51.476;5.702;2023-04-15T06:02:06;16.00;;;11.30;;
42332;SDS011;27984;51.476;5.702;2023-04-15T06:04:31;16.08;;;11.80;;
42332;SDS011;27984;51.476;5.702;2023-04-15T06:06:57;16.52;;;10.77;;
42332;SDS011;27984;51.476;5.702;2023-04-15T06:09:22;15.20;;;10.90;;
42332;SDS011;27984;51.476;5.702;2023-04-15T06:11:48;15.57;;;10.93;;
42332;SDS011;27984;51.476;5.702;2023-04-15T06:14:13;14.98;;;10.45;;
42332;SDS011;27984;51.476;5.702;2023-04-15T06:16:39;14.20;;;10.75;;
42332;SDS011;27984;51.476;5.702;2023-04-15T06:19:05;15.07;;;10.48;;
42332;SDS011;27984;51.476;5.702;2023-04-15T06:21:30;13.55;;;10.30;;
42332;SDS011;27984;51.476;5.702;2023-04-15T06:23:56;13.20;;;10.73;;
42332;SDS011;27984;51.476;5.702;2023-04-15T06:26:24;14.32;;;10.65;;
42332;SDS011;27984;51.476;5.702;2023-04-15T06:28:50;13.77;;;10.68;;
42332;SDS011;27984;51.476;5.702;2023-04-15T06:31:15;16.80;;;10.77;;
42332;SDS011;27984;51.476;5.702;2023-04-15T06:33:41;14.90;;;11.13;;
42332;SDS011;27984;51.476;5.702;2023-04-15T06:36:06;13.77;;;10.65;;
42332;SDS011;27984;51.476;5.702;2023-04-15T06:38:32;15.40;;;10.93;;
42332;SDS011;27984;51.476;5.702;2023-04-15T06:40:57;15.23;;;11.18;;
42332;SDS011;27984;51.476;5.702;2023-04-15T06:43:23;15.65;;;11.13;;
42332;SDS011;27984;51.476;5.702;2023-04-15T06:45:49;16.83;;;11.63;;
42332;SDS011;27984;51.476;5.702;2023-04-15T06:48:15;14.10;;;10.45;;
42332;SDS011;27984;51.476;5.702;2023-04-15T06:50:41;12.15;;;10.15;;
42332;SDS011;27984;51.476;5.702;2023-04-15T06:53:07;15.85;;;10.18;;
42332;SDS011;27984;51.476;5.702;2023-04-15T06:55:32;12.23;;;9.60;;
42332;SDS011;27984;51.476;5.702;2023-04-15T06:57:58;12.43;;;9.10;;
42332;SDS011;27984;51.476;5.702;2023-04-15T07:00:24;13.02;;;9.98;;
42332;SDS011;27984;51.476;5.702;2023-04-15T07:02:50;12.10;;;9.23;;
42332;SDS011;27984;51.476;5.702;2023-04-15T07:05:15;12.98;;;9.40;;
42332;SDS011;27984;51.476;5.702;2023-04-15T07:07:42;11.43;;;9.07;;
42332;SDS011;27984;51.476;5.702;2023-04-15T07:10:07;11.23;;;8.65;;
42332;SDS011;27984;51.476;5.702;2023-04-15T07:12:33;9.65;;;8.32;;
42332;SDS011;27984;51.476;5.702;2023-04-15T07:14:59;11.55;;;8.65;;
42332;SDS011;27984;51.476;5.702;2023-04-15T07:17:25;9.75;;;8.40;;
42332;SDS011;27984;51.476;5.702;2023-04-15T07:19:51;11.10;;;8.23;;
42332;SDS011;27984;51.476;5.702;2023-04-15T07:22:16;11.98;;;8.13;;
42332;SDS011;27984;51.476;5.702;2023-04-15T07:24:42;10.15;;;7.68;;
42332;SDS011;27984;51.476;5.702;2023-04-15T07:27:07;11.65;;;8.20;;
42332;SDS011;27984;51.476;5.702;2023-04-15T07:29:33;12.85;;;9.20;;
42332;SDS011;27984;51.476;5.702;2023-04-15T07:31:58;9.90;;;8.25;;
42332;SDS011;27984;51.476;5.702;2023-04-15T07:34:24;10.18;;;8.20;;
42332;SDS011;27984;51.476;5.702;2023-04-15T07:36:49;9.10;;;8.20;;
42332;SDS011;27984;51.476;5.702;2023-04-15T07:39:16;11.25;;;8.27;;
42332;SDS011;27984;51.476;5.702;2023-04-15T07:41:42;9.68;;;7.82;;
42332;SDS011;27984;51.476;5.702;2023-04-15T07:44:07;11.25;;;8.23;;
42332;SDS011;27984;51.476;5.702;2023-04-15T07:46:33;13.38;;;7.53;;
42332;SDS011;27984;51.476;5.702;2023-04-15T07:48:59;8.80;;;7.07;;
42332;SDS011;27984;51.476;5.702;2023-04-15T07:51:24;10.80;;;7.40;;
42332;SDS011;27984;51.476;5.702;2023-04-15T07:53:50;8.30;;;7.32;;
42332;SDS011;27984;51.476;5.702;2023-04-15T07:56:15;8.30;;;7.15;;
42332;SDS011;27984;51.476;5.702;2023-04-15T07:58:41;8.65;;;6.93;;
42332;SDS011;27984;51.476;5.702;2023-04-15T08:01:07;7.68;;;6.82;;
42332;SDS011;27984;51.476;5.702;2023-04-15T08:03:33;8.18;;;6.82;;
42332;SDS011;27984;51.476;5.702;2023-04-15T08:05:59;8.88;;;7.05;;
42332;SDS011;27984;51.476;5.702;2023-04-15T08:08:24;9.43;;;6.40;;
42332;SDS011;27984;51.476;5.702;2023-04-15T08:10:50;9.23;;;6.75;;
42332;SDS011;27984;51.476;5.702;2023-04-15T08:13:16;6.60;;;5.03;;
42332;SDS011;27984;51.476;5.702;2023-04-15T08:15:42;5.65;;;4.72;;
42332;SDS011;27984;51.476;5.702;2023-04-15T08:18:07;6.60;;;5.47;;
42332;SDS011;27984;51.476;5.702;2023-04-15T08:20:33;5.10;;;4.60;;
42332;SDS011;27984;51.476;5.702;2023-04-15T08:22:59;7.13;;;5.32;;
42332;SDS011;27984;51.476;5.702;2023-04-15T08:25:24;7.38;;;4.47;;
42332;SDS011;27984;51.476;5.702;2023-04-15T08:27:50;5.80;;;4.53;;
42332;SDS011;27984;51.476;5.702;2023-04-15T08:30:16;6.15;;;5.20;;
42332;SDS011;27984;51.476;5.702;2023-04-15T08:32:44;6.97;;;4.90;;
42332;SDS011;27984;51.476;5.702;2023-04-15T08:35:11;6.65;;;5.20;;
42332;SDS011;27984;51.476;5.702;2023-04-15T08:37:36;9.13;;;5.15;;
42332;SDS011;27984;51.476;5.702;2023-04-15T08:40:02;6.82;;;5.25;;
42332;SDS011;27984;51.476;5.702;2023-04-15T08:42:33;5.88;;;5.25;;
42332;SDS011;27984;51.476;5.702;2023-04-15T08:45:01;6.03;;;5.43;;
42332;SDS011;27984;51.476;5.702;2023-04-15T08:47:29;7.75;;;5.38;;
42332;SDS011;27984;51.476;5.702;2023-04-15T08:49:58;7.68;;;5.68;;
42332;SDS011;27984;51.476;5.702;2023-04-15T08:52:25;6.47;;;5.05;;
42332;SDS011;27984;51.476;5.702;2023-04-15T08:54:51;6.45;;;5.10;;
42332;SDS011;27984;51.476;5.702;2023-04-15T08:57:23;8.10;;;5.60;;
42332;SDS011;27984;51.476;5.702;2023-04-15T08:59:54;8.52;;;4.68;;
42332;SDS011;27984;51.476;5.702;2023-04-15T09:02:21;7.30;;;4.78;;
42332;SDS011;27984;51.476;5.702;2023-04-15T09:04:48;6.70;;;5.10;;
42332;SDS011;27984;51.476;5.702;2023-04-15T09:07:14;9.30;;;4.82;;
42332;SDS011;27984;51.476;5.702;2023-04-15T09:09:40;8.05;;;5.10;;
42332;SDS011;27984;51.476;5.702;2023-04-15T09:12:06;6.65;;;4.80;;
42332;SDS011;27984;51.476;5.702;2023-04-15T09:14:32;7.30;;;4.65;;
42332;SDS011;27984;51.476;5.702;2023-04-15T09:17:00;6.43;;;4.70;;
42332;SDS011;27984;51.476;5.702;2023-04-15T09:19:27;5.55;;;4.47;;
42332;SDS011;27984;51.476;5.702;2023-04-15T09:21:53;5.95;;;4.72;;
42332;SDS011;27984;51.476;5.702;2023-04-15T09:24:23;5.60;;;4.05;;
42332;SDS011;27984;51.476;5.702;2023-04-15T09:26:53;4.10;;;3.70;;
42332;SDS011;27984;51.476;5.702;2023-04-15T09:29:23;4.28;;;3.65;;
42332;SDS011;27984;51.476;5.702;2023-04-15T09:31:50;4.57;;;3.80;;
42332;SDS011;27984;51.476;5.702;2023-04-15T09:34:16;4.13;;;3.40;;
42332;SDS011;27984;51.476;5.702;2023-04-15T09:39:11;3.95;;;3.55;;
42332;SDS011;27984;51.476;5.702;2023-04-15T09:41:36;5.57;;;3.08;;
42332;SDS011;27984;51.476;5.702;2023-04-15T09:44:02;3.42;;;3.10;;
42332;SDS011;27984;51.476;5.702;2023-04-15T09:46:39;3.70;;;3.28;;
42332;SDS011;27984;51.476;5.702;2023-04-15T09:49:09;5.10;;;3.50;;
42332;SDS011;27984;51.476;5.702;2023-04-15T09:51:35;4.40;;;3.10;;
42332;SDS011;27984;51.476;5.702;2023-04-15T09:54:01;7.13;;;3.50;;
42332;SDS011;27984;51.476;5.702;2023-04-15T09:56:33;6.95;;;3.67;;
42332;SDS011;27984;51.476;5.702;2023-04-15T09:59:01;4.30;;;3.30;;
42332;SDS011;27984;51.476;5.702;2023-04-15T10:01:27;4.95;;;3.70;;
42332;SDS011;27984;51.476;5.702;2023-04-15T10:03:53;4.18;;;3.58;;
42332;SDS011;27984;51.476;5.702;2023-04-15T10:06:21;4.90;;;3.45;;
42332;SDS011;27984;51.476;5.702;2023-04-15T10:08:49;4.68;;;3.63;;
42332;SDS011;27984;51.476;5.702;2023-04-15T10:11:16;6.13;;;4.07;;
42332;SDS011;27984;51.476;5.702;2023-04-15T10:13:43;6.53;;;4.07;;
42332;SDS011;27984;51.476;5.702;2023-04-15T10:16:11;4.22;;;3.70;;
42332;SDS011;27984;51.476;5.702;2023-04-15T10:18:42;3.33;;;3.00;;
42332;SDS011;27984;51.476;5.702;2023-04-15T10:21:10;3.80;;;2.85;;
42332;SDS011;27984;51.476;5.702;2023-04-15T10:23:42;3.35;;;3.05;;
42332;SDS011;27984;51.476;5.702;2023-04-15T10:26:09;2.95;;;2.60;;
42332;SDS011;27984;51.476;5.702;2023-04-15T10:28:37;5.15;;;2.20;;
42332;SDS011;27984;51.476;5.702;2023-04-15T10:31:02;3.08;;;2.47;;
42332;SDS011;27984;51.476;5.702;2023-04-15T10:33:29;2.90;;;2.60;;
42332;SDS011;27984;51.476;5.702;2023-04-15T10:35:55;4.70;;;2.60;;
42332;SDS011;27984;51.476;5.702;2023-04-15T10:41:19;4.10;;;3.13;;
42332;SDS011;27984;51.476;5.702;2023-04-15T10:43:52;2.63;;;2.33;;
42332;SDS011;27984;51.476;5.702;2023-04-15T10:46:38;3.22;;;2.70;;
42332;SDS011;27984;51.476;5.702;2023-04-15T10:49:12;4.28;;;2.17;;
42332;SDS011;27984;51.476;5.702;2023-04-15T10:51:38;2.75;;;2.45;;
42332;SDS011;27984;51.476;5.702;2023-04-15T10:54:08;2.65;;;2.45;;
42332;SDS011;27984;51.476;5.702;2023-04-15T10:56:40;6.50;;;2.60;;
42332;SDS011;27984;51.476;5.702;2023-04-15T10:59:09;3.45;;;2.55;;
42332;SDS011;27984;51.476;5.702;2023-04-15T11:01:50;2.55;;;2.25;;
42332;SDS011;27984;51.476;5.702;2023-04-15T11:12:38;2.40;;;2.20;;
42332;SDS011;27984;51.476;5.702;2023-04-15T11:20:37;3.55;;;2.47;;
42332;SDS011;27984;51.476;5.702;2023-04-15T11:23:07;4.70;;;2.72;;
42332;SDS011;27984;51.476;5.702;2023-04-15T11:25:33;3.85;;;2.70;;
42332;SDS011;27984;51.476;5.702;2023-04-15T11:28:03;5.00;;;2.60;;
42332;SDS011;27984;51.476;5.702;2023-04-15T11:30:31;4.90;;;2.83;;
42332;SDS011;27984;51.476;5.702;2023-04-15T11:33:07;4.60;;;3.00;;
42332;SDS011;27984;51.476;5.702;2023-04-15T11:35:34;4.35;;;3.08;;
42332;SDS011;27984;51.476;5.702;2023-04-15T11:38:04;4.60;;;3.13;;
42332;SDS011;27984;51.476;5.702;2023-04-15T11:40:32;4.65;;;2.95;;
42332;SDS011;27984;51.476;5.702;2023-04-15T11:45:35;4.28;;;2.53;;
42332;SDS011;27984;51.476;5.702;2023-04-15T11:48:08;3.42;;;2.35;;
42332;SDS011;27984;51.476;5.702;2023-04-15T11:50:35;3.10;;;2.70;;
42332;SDS011;27984;51.476;5.702;2023-04-15T11:53:05;3.95;;;2.65;;
42332;SDS011;27984;51.476;5.702;2023-04-15T11:55:45;2.80;;;2.60;;
42332;SDS011;27984;51.476;5.702;2023-04-15T12:01:06;3.15;;;2.60;;
42332;SDS011;27984;51.476;5.702;2023-04-15T12:03:44;3.38;;;2.55;;
42332;SDS011;27984;51.476;5.702;2023-04-15T12:11:47;2.85;;;2.33;;
42332;SDS011;27984;51.476;5.702;2023-04-15T12:14:24;2.40;;;2.20;;
42332;SDS011;27984;51.476;5.702;2023-04-15T12:16:53;2.72;;;1.85;;
42332;SDS011;27984;51.476;5.702;2023-04-15T12:19:27;1.92;;;1.70;;
42332;SDS011;27984;51.476;5.702;2023-04-15T12:22:02;2.17;;;1.98;;
42332;SDS011;27984;51.476;5.702;2023-04-15T12:24:31;2.50;;;2.20;;
42332;SDS011;27984;51.476;5.702;2023-04-15T12:27:00;2.35;;;1.90;;
42332;SDS011;27984;51.476;5.702;2023-04-15T12:29:28;1.85;;;1.75;;
42332;SDS011;27984;51.476;5.702;2023-04-15T12:31:58;2.00;;;1.80;;
42332;SDS011;27984;51.476;5.702;2023-04-15T12:34:47;2.35;;;1.70;;
42332;SDS011;27984;51.476;5.702;2023-04-15T12:37:14;2.08;;;1.55;;
42332;SDS011;27984;51.476;5.702;2023-04-15T12:39:42;2.35;;;1.67;;
42332;SDS011;27984;51.476;5.702;2023-04-15T12:42:09;3.63;;;2.00;;
42332;SDS011;27984;51.476;5.702;2023-04-15T12:44:35;4.50;;;2.20;;
42332;SDS011;27984;51.476;5.702;2023-04-15T12:47:01;5.20;;;2.47;;
42332;SDS011;27984;51.476;5.702;2023-04-15T12:49:27;3.15;;;2.38;;
42332;SDS011;27984;51.476;5.702;2023-04-15T12:51:57;3.67;;;2.20;;
42332;SDS011;27984;51.476;5.702;2023-04-15T12:54:26;2.72;;;2.10;;
42332;SDS011;27984;51.476;5.702;2023-04-15T12:56:53;2.03;;;1.80;;
42332;SDS011;27984;51.476;5.702;2023-04-15T12:59:19;2.75;;;2.10;;
42332;SDS011;27984;51.476;5.702;2023-04-15T13:01:45;2.30;;;2.00;;
42332;SDS011;27984;51.476;5.702;2023-04-15T13:04:12;4.05;;;1.92;;
42332;SDS011;27984;51.476;5.702;2023-04-15T13:06:38;1.98;;;1.75;;
42332;SDS011;27984;51.476;5.702;2023-04-15T13:09:04;6.97;;;1.85;;
42332;SDS011;27984;51.476;5.702;2023-04-15T13:11:30;3.03;;;2.40;;
42332;SDS011;27984;51.476;5.702;2023-04-15T13:13:57;3.53;;;1.88;;
42332;SDS011;27984;51.476;5.702;2023-04-15T13:16:30;3.42;;;2.13;;
42332;SDS011;27984;51.476;5.702;2023-04-15T13:18:57;2.53;;;1.80;;
42332;SDS011;27984;51.476;5.702;2023-04-15T13:21:23;4.93;;;2.35;;
42332;SDS011;27984;51.476;5.702;2023-04-15T13:23:49;3.45;;;1.80;;
42332;SDS011;27984;51.476;5.702;2023-04-15T13:26:15;4.53;;;2.00;;
42332;SDS011;27984;51.476;5.702;2023-04-15T13:28:41;2.42;;;1.92;;
42332;SDS011;27984;51.476;5.702;2023-04-15T13:31:07;2.65;;;1.98;;
42332;SDS011;27984;51.476;5.702;2023-04-15T13:33:32;3.70;;;2.10;;
42332;SDS011;27984;51.476;5.702;2023-04-15T13:42:45;3.05;;;1.80;;
42332;SDS011;27984;51.476;5.702;2023-04-15T13:45:11;1.75;;;1.45;;
42332;SDS011;27984;51.476;5.702;2023-04-15T13:47:36;2.70;;;1.55;;
42332;SDS011;27984;51.476;5.702;2023-04-15T13:50:02;2.63;;;1.60;;
42332;SDS011;27984;51.476;5.702;2023-04-15T13:52:28;2.13;;;1.60;;
42332;SDS011;27984;51.476;5.702;2023-04-15T13:54:54;4.45;;;1.85;;
42332;SDS011;27984;51.476;5.702;2023-04-15T13:57:19;2.55;;;2.03;;
42332;SDS011;27984;51.476;5.702;2023-04-15T13:59:45;3.83;;;1.50;;
42332;SDS011;27984;51.476;5.702;2023-04-15T14:02:10;2.83;;;1.60;;
42332;SDS011;27984;51.476;5.702;2023-04-15T14:04:36;3.22;;;1.80;;
42332;SDS011;27984;51.476;5.702;2023-04-15T14:07:02;3.80;;;2.00;;
42332;SDS011;27984;51.476;5.702;2023-04-15T14:09:28;5.75;;;1.92;;
42332;SDS011;27984;51.476;5.702;2023-04-15T14:11:53;2.50;;;1.67;;
42332;SDS011;27984;51.476;5.702;2023-04-15T14:14:20;2.92;;;1.70;;
42332;SDS011;27984;51.476;5.702;2023-04-15T14:16:45;3.70;;;1.80;;
42332;SDS011;27984;51.476;5.702;2023-04-15T14:19:12;2.97;;;1.80;;
42332;SDS011;27984;51.476;5.702;2023-04-15T14:21:38;4.95;;;1.75;;
42332;SDS011;27984;51.476;5.702;2023-04-15T14:24:04;2.78;;;1.50;;
42332;SDS011;27984;51.476;5.702;2023-04-15T14:26:29;2.38;;;1.40;;
42332;SDS011;27984;51.476;5.702;2023-04-15T14:28:55;2.85;;;1.30;;
42332;SDS011;27984;51.476;5.702;2023-04-15T14:31:20;2.28;;;1.35;;
42332;SDS011;27984;51.476;5.702;2023-04-15T14:33:46;3.13;;;1.13;;
42332;SDS011;27984;51.476;5.702;2023-04-15T14:36:11;2.85;;;1.27;;
42332;SDS011;27984;51.476;5.702;2023-04-15T14:38:37;2.45;;;1.35;;
42332;SDS011;27984;51.476;5.702;2023-04-15T14:41:04;2.70;;;1.25;;
42332;SDS011;27984;51.476;5.702;2023-04-15T14:43:30;1.20;;;0.93;;
42332;SDS011;27984;51.476;5.702;2023-04-15T14:45:56;2.15;;;1.40;;
42332;SDS011;27984;51.476;5.702;2023-04-15T14:48:21;2.45;;;1.00;;
42332;SDS011;27984;51.476;5.702;2023-04-15T14:50:47;2.05;;;0.90;;
42332;SDS011;27984;51.476;5.702;2023-04-15T14:53:13;3.90;;;0.88;;
42332;SDS011;27984;51.476;5.702;2023-04-15T14:55:38;4.55;;;1.10;;
42332;SDS011;27984;51.476;5.702;2023-04-15T14:58:04;1.85;;;1.10;;
42332;SDS011;27984;51.476;5.702;2023-04-15T15:00:32;2.10;;;1.25;;
42332;SDS011;27984;51.476;5.702;2023-04-15T15:02:57;2.40;;;1.00;;
42332;SDS011;27984;51.476;5.702;2023-04-15T15:05:23;2.10;;;1.30;;
42332;SDS011;27984;51.476;5.702;2023-04-15T15:07:48;2.15;;;1.20;;
42332;SDS011;27984;51.476;5.702;2023-04-15T15:12:49;3.55;;;1.10;;
42332;SDS011;27984;51.476;5.702;2023-04-15T15:15:15;2.03;;;0.85;;